createdAt,value
2023-07-25T00:01:44.603Z,4.15
2023-07-25T00:06:46.236Z,4.40
2023-07-25T00:11:49.185Z,3.80
2023-07-25T00:16:50.920Z,5.47
2023-07-25T00:21:52.820Z,3.53
2023-07-25T00:26:55.824Z,4.85
2023-07-25T00:31:57.432Z,3.92
2023-07-25T00:36:59.101Z,5.45
2023-07-25T00:42:01.935Z,5.50
2023-07-25T00:47:03.684Z,4.95
2023-07-25T00:52:06.052Z,3.85
2023-07-25T00:57:09.146Z,6.72
2023-07-25T01:02:13.448Z,6.90
2023-07-25T01:07:15.522Z,6.15
2023-07-25T01:12:18.484Z,8.20
2023-07-25T01:17:23.944Z,7.10
2023-07-25T01:22:27.013Z,8.27
2023-07-25T01:27:30.049Z,8.15
2023-07-25T01:32:31.765Z,8.25
2023-07-25T01:37:33.348Z,6.90
2023-07-25T01:42:36.208Z,7.38
2023-07-25T01:47:37.725Z,10.82
2023-07-25T01:52:39.416Z,10.27
2023-07-25T01:57:42.250Z,13.93
2023-07-25T02:02:43.952Z,11.63
2023-07-25T02:07:45.569Z,13.45
2023-07-25T02:12:48.576Z,14.63
2023-07-25T02:17:50.236Z,15.80
2023-07-25T02:22:52.186Z,11.73
2023-07-25T02:27:55.104Z,13.60
2023-07-25T02:32:56.708Z,14.27
2023-07-25T02:37:58.340Z,13.10
2023-07-25T02:43:03.414Z,98.57
2023-07-25T02:48:05.512Z,148.50
2023-07-25T02:53:07.125Z,254.85
2023-07-25T02:58:09.944Z,153.98
2023-07-25T03:03:11.505Z,207.73
2023-07-25T03:08:13.080Z,164.68
2023-07-25T03:13:16.258Z,63.13
2023-07-25T03:18:17.879Z,25.55
2023-07-25T03:23:19.467Z,21.88
2023-07-25T03:28:22.434Z,22.20
2023-07-25T03:33:24.138Z,20.23
2023-07-25T03:38:25.690Z,25.52
2023-07-25T03:43:28.598Z,43.30
2023-07-25T03:48:30.196Z,84.07
2023-07-25T03:53:33.570Z,82.55
2023-07-25T03:58:36.479Z,51.58
2023-07-25T04:03:38.201Z,99.20
2023-07-25T04:08:40.002Z,191.95
2023-07-25T04:13:43.000Z,101.78
2023-07-25T04:18:45.360Z,152.30
2023-07-25T04:23:47.231Z,20.73
2023-07-25T04:28:50.214Z,13.45
2023-07-25T04:33:51.858Z,14.85
2023-07-25T04:38:53.533Z,13.15
2023-07-25T04:43:56.519Z,10.68
2023-07-25T04:48:58.139Z,25.02
2023-07-25T04:53:59.836Z,10.43
2023-07-25T04:59:02.776Z,14.55
2023-07-25T05:04:04.667Z,10.27
2023-07-25T05:09:06.374Z,17.13
2023-07-25T05:14:09.380Z,8.50
2023-07-25T05:19:10.988Z,12.15
2023-07-25T05:24:12.574Z,14.02
2023-07-25T05:29:15.524Z,11.88
2023-07-25T05:34:17.139Z,20.35
2023-07-25T05:39:18.730Z,20.38
2023-07-25T05:44:21.758Z,13.65
2023-07-25T05:49:23.414Z,14.23
2023-07-25T05:54:24.979Z,8.98
2023-07-25T05:59:27.861Z,8.73
2023-07-25T06:04:30.607Z,9.20
2023-07-25T06:09:32.276Z,12.18
2023-07-25T06:14:35.254Z,11.93
2023-07-25T06:19:36.820Z,13.30
2023-07-25T06:24:38.605Z,14.00
2023-07-25T06:29:41.669Z,4.32
2023-07-25T06:34:43.273Z,2.92
2023-07-25T06:39:44.905Z,3.67
2023-07-25T06:44:48.817Z,4.07
2023-07-25T06:49:50.501Z,3.83
2023-07-25T06:54:53.161Z,1.52
2023-07-25T06:59:56.091Z,3.90
2023-07-25T07:04:57.851Z,3.42
2023-07-25T07:09:59.410Z,3.15
2023-07-25T07:15:02.749Z,2.17
2023-07-25T07:20:07.245Z,1.55
2023-07-25T07:25:19.850Z,2.33
2023-07-25T07:30:22.778Z,2.75
2023-07-25T07:35:24.546Z,3.90
2023-07-25T07:40:26.212Z,2.15
2023-07-25T07:45:29.167Z,4.53
2023-07-25T07:50:30.792Z,4.40
2023-07-25T07:55:32.432Z,2.78
2023-07-25T08:00:35.412Z,4.93
2023-07-25T08:05:36.939Z,3.65
2023-07-25T08:10:38.560Z,4.90
2023-07-25T08:15:42.556Z,9.00
2023-07-25T08:20:44.220Z,6.45
2023-07-25T08:25:45.748Z,4.80
2023-07-25T08:30:48.715Z,4.25
2023-07-25T08:35:50.382Z,8.35
2023-07-25T08:40:56.384Z,6.93
2023-07-25T08:46:02.013Z,7.90
2023-07-25T08:51:06.906Z,7.30
2023-07-25T08:56:08.905Z,3.88
2023-07-25T09:01:12.941Z,4.40
2023-07-25T09:06:14.794Z,2.78
2023-07-25T09:11:19.390Z,8.10
2023-07-25T09:16:22.413Z,2.85
2023-07-25T09:21:24.029Z,3.83
2023-07-25T09:26:27.290Z,2.85
2023-07-25T09:31:30.321Z,2.92
2023-07-25T09:36:32.135Z,4.30
2023-07-25T09:41:36.399Z,2.80
2023-07-25T09:46:39.650Z,4.78
2023-07-25T09:51:57.567Z,2.78
2023-07-25T09:56:59.411Z,2.15
2023-07-25T10:02:03.038Z,4.13
2023-07-25T10:07:06.891Z,3.70
2023-07-25T10:12:09.682Z,1.30
2023-07-25T10:17:12.674Z,2.00
2023-07-25T10:22:14.351Z,1.70
2023-07-25T10:27:16.068Z,2.20
2023-07-25T10:32:45.942Z,1.60
2023-07-25T10:37:47.563Z,3.83
2023-07-25T10:47:59.741Z,4.03
2023-07-25T10:53:14.766Z,1.98
2023-07-25T10:58:17.006Z,2.58
2023-07-25T11:03:29.215Z,2.15
2023-07-25T11:08:30.919Z,3.35
2023-07-25T11:13:33.818Z,3.83
2023-07-25T11:18:38.065Z,1.63
2023-07-25T11:23:39.698Z,2.40
2023-07-25T11:28:41.301Z,1.90
2023-07-25T11:33:44.297Z,6.57
2023-07-25T11:38:45.837Z,2.30
2023-07-25T11:43:47.404Z,1.95
2023-07-25T11:48:50.419Z,1.63
2023-07-25T11:53:52.882Z,3.50
2023-07-25T11:58:55.475Z,4.35
2023-07-25T12:03:59.252Z,2.90
2023-07-25T12:09:02.006Z,1.65
2023-07-25T12:14:03.634Z,1.48
2023-07-25T12:19:09.558Z,2.40
2023-07-25T12:24:12.708Z,1.40
2023-07-25T12:29:15.267Z,2.28
2023-07-25T12:34:18.172Z,2.80
2023-07-25T12:39:19.707Z,3.80
2023-07-25T12:44:21.276Z,1.50
2023-07-25T12:49:24.472Z,4.32
2023-07-25T12:54:26.054Z,2.65
2023-07-25T12:59:27.661Z,1.35
2023-07-25T13:04:30.762Z,2.75
2023-07-25T13:09:32.414Z,2.45
2023-07-25T13:14:34.049Z,1.10
2023-07-25T13:19:37.025Z,3.63
2023-07-25T13:24:38.764Z,1.35
2023-07-25T13:29:40.372Z,1.50
2023-07-25T13:34:44.413Z,3.40
2023-07-25T13:39:45.955Z,1.98
2023-07-25T13:44:47.562Z,2.08
2023-07-25T13:49:50.448Z,1.15
2023-07-25T13:54:52.018Z,2.30
2023-07-25T13:59:53.500Z,3.30
2023-07-25T14:04:56.447Z,1.92
2023-07-25T14:09:58.089Z,1.73
2023-07-25T14:15:01.201Z,0.90
2023-07-25T14:20:07.023Z,1.15
2023-07-25T14:25:09.158Z,2.40
2023-07-25T14:30:11.072Z,2.38
2023-07-25T14:35:14.038Z,1.45
2023-07-25T14:40:15.809Z,1.63
2023-07-25T14:45:17.418Z,0.85
2023-07-25T14:50:20.275Z,0.93
2023-07-25T14:55:22.421Z,1.80
2023-07-25T15:00:24.092Z,1.63
2023-07-25T15:05:27.155Z,2.05
2023-07-25T15:10:28.807Z,0.82
2023-07-25T15:15:30.420Z,1.38
2023-07-25T15:20:33.362Z,1.10
2023-07-25T15:25:35.015Z,1.20
2023-07-25T15:30:36.650Z,1.33
2023-07-25T15:35:39.727Z,1.00
2023-07-25T15:40:41.475Z,0.93
2023-07-25T15:45:43.209Z,1.40
2023-07-25T15:50:46.233Z,1.92
2023-07-25T15:55:47.813Z,1.90
2023-07-25T16:00:49.534Z,1.35
2023-07-25T16:05:52.601Z,1.63
2023-07-25T16:10:54.180Z,2.90
2023-07-25T16:15:55.948Z,1.75
2023-07-25T16:20:58.904Z,1.45
2023-07-25T16:26:03.190Z,2.78
2023-07-25T16:31:22.770Z,0.90
2023-07-25T16:36:29.170Z,0.85
2023-07-25T16:41:31.109Z,1.55
2023-07-25T16:46:33.261Z,1.25
2023-07-25T16:51:36.284Z,1.73
2023-07-25T16:56:37.826Z,1.25
2023-07-25T17:01:39.425Z,1.42
2023-07-25T17:06:42.742Z,0.60
2023-07-25T17:11:44.322Z,0.70
2023-07-25T17:16:45.880Z,1.65
2023-07-25T17:21:49.146Z,0.68
2023-07-25T17:26:51.008Z,3.05
2023-07-25T17:31:52.647Z,0.73
2023-07-25T17:36:55.601Z,0.73
2023-07-25T17:41:57.260Z,0.65
2023-07-25T17:46:58.834Z,1.00
2023-07-25T17:52:01.769Z,0.55
2023-07-25T17:57:03.836Z,0.55
2023-07-25T18:02:06.962Z,1.27
2023-07-25T18:07:09.941Z,1.75
2023-07-25T18:12:11.989Z,1.85
2023-07-25T18:17:14.987Z,0.65
2023-07-25T18:22:17.950Z,0.60
2023-07-25T18:27:19.581Z,0.73
2023-07-25T18:32:21.265Z,1.75
2023-07-25T18:37:24.212Z,0.68
2023-07-25T18:42:25.899Z,1.77
2023-07-25T18:47:34.370Z,0.60
2023-07-25T18:52:37.889Z,1.40
2023-07-25T18:57:39.591Z,0.80
2023-07-25T19:02:41.323Z,1.05
2023-07-25T19:07:44.470Z,0.77
2023-07-25T19:12:46.065Z,0.88
2023-07-25T19:17:47.708Z,1.40
2023-07-25T19:22:50.640Z,2.10
2023-07-25T19:27:52.288Z,2.80
2023-07-25T19:32:53.991Z,2.25
2023-07-25T19:37:57.070Z,3.60
2023-07-25T19:42:58.687Z,2.70
2023-07-25T19:48:00.293Z,3.20
2023-07-25T19:53:07.609Z,3.63
2023-07-25T19:58:09.159Z,3.00
2023-07-25T20:03:11.847Z,3.63
2023-07-25T20:08:14.910Z,3.38
2023-07-25T20:13:17.100Z,4.15
2023-07-25T20:18:19.816Z,3.88
2023-07-25T20:23:23.861Z,3.80
2023-07-25T20:28:25.528Z,3.20
2023-07-25T20:33:27.266Z,2.50
2023-07-25T20:38:33.078Z,3.97
2023-07-25T20:43:34.758Z,6.32
2023-07-25T20:48:36.423Z,4.57
2023-07-25T20:53:39.472Z,4.55
2023-07-25T20:58:41.080Z,6.38
2023-07-25T21:03:43.774Z,4.32
2023-07-25T21:08:47.241Z,5.95
2023-07-25T21:13:48.961Z,7.35
2023-07-25T21:18:50.630Z,5.53
2023-07-25T21:23:53.562Z,8.80
2023-07-25T21:28:55.260Z,6.88
2023-07-25T21:33:56.897Z,8.25
2023-07-25T21:38:59.998Z,9.00
2023-07-25T21:44:01.684Z,9.75
2023-07-25T21:49:03.243Z,6.90
2023-07-25T21:54:06.137Z,6.10
2023-07-25T21:59:07.675Z,6.70
2023-07-25T22:04:11.319Z,7.82
2023-07-25T22:09:14.281Z,11.10
2023-07-25T22:14:15.922Z,8.00
2023-07-25T22:19:17.617Z,13.30
2023-07-25T22:24:20.695Z,10.15
2023-07-25T22:29:22.413Z,9.90
2023-07-25T22:34:24.106Z,8.25
2023-07-25T22:39:26.972Z,10.95
2023-07-25T22:44:28.623Z,9.85
2023-07-25T22:49:30.184Z,10.35
2023-07-25T22:54:33.091Z,14.32
2023-07-25T22:59:35.008Z,12.95
2023-07-25T23:04:36.683Z,10.63
2023-07-25T23:09:39.759Z,14.13
2023-07-25T23:14:41.310Z,15.13
2023-07-25T23:19:43.056Z,14.75
2023-07-25T23:24:46.062Z,16.55
2023-07-25T23:29:47.730Z,20.27
2023-07-25T23:34:51.172Z,21.20
2023-07-25T23:39:54.505Z,22.77
2023-07-25T23:44:56.030Z,21.88
2023-07-25T23:49:57.635Z,21.75
2023-07-25T23:55:01.105Z,26.02
